sensor_id;sensor_type;location;lat;lon;timestamp;pressure;altitude;pressure_sealevel;temperature;humidity
52343;BME280;38277;51.972;4.624;2023-05-17T00:03:08;102740.0;;;11.3;77.5
52343;BME280;38277;51.972;4.624;2023-05-17T00:07:10;102720.0;;;11.3;77.5
52343;BME280;38277;51.972;4.624;2023-05-17T00:11:59;102730.0;;;11.4;77.5
52343;BME280;38277;51.972;4.624;2023-05-17T00:16:16;102730.0;;;11.5;77.0
52343;BME280;38277;51.972;4.624;2023-05-17T00:21:18;102730.0;;;11.5;77.0
52343;BME280;38277;51.972;4.624;2023-05-17T00:25:25;102740.0;;;11.6;77.0
52343;BME280;38277;51.972;4.624;2023-05-17T00:30:06;102750.0;;;11.6;77.0
52343;BME280;38277;51.972;4.624;2023-05-17T00:34:35;102750.0;;;11.6;77.0
52343;BME280;38277;51.972;4.624;2023-05-17T00:39:19;102750.0;;;11.6;77.0
52343;BME280;38277;51.972;4.624;2023-05-17T00:43:16;102740.0;;;11.6;77.0
52343;BME280;38277;51.972;4.624;2023-05-17T00:47:38;102730.0;;;11.6;76.5
52343;BME280;38277;51.972;4.624;2023-05-17T00:52:15;102740.0;;;11.6;77.0
52343;BME280;38277;51.972;4.624;2023-05-17T00:57:02;102730.0;;;11.6;77.0
52343;BME280;38277;51.972;4.624;2023-05-17T01:05:50;102730.0;;;11.7;77.0
52343;BME280;38277;51.972;4.624;2023-05-17T01:10:35;102730.0;;;11.7;77.0
52343;BME280;38277;51.972;4.624;2023-05-17T01:19:31;102730.0;;;11.6;77.0
52343;BME280;38277;51.972;4.624;2023-05-17T01:24:38;102720.0;;;11.6;77.0
52343;BME280;38277;51.972;4.624;2023-05-17T01:28:11;102720.0;;;11.6;77.5
52343;BME280;38277;51.972;4.624;2023-05-17T01:33:07;102730.0;;;11.6;77.5
52343;BME280;38277;51.972;4.624;2023-05-17T01:42:06;102730.0;;;11.7;77.5
52343;BME280;38277;51.972;4.624;2023-05-17T01:46:32;102730.0;;;11.7;77.5
52343;BME280;38277;51.972;4.624;2023-05-17T01:50:39;102740.0;;;11.8;77.5
52343;BME280;38277;51.972;4.624;2023-05-17T01:55:49;102740.0;;;11.8;77.5
52343;BME280;38277;51.972;4.624;2023-05-17T02:00:08;102740.0;;;11.8;77.0
52343;BME280;38277;51.972;4.624;2023-05-17T02:04:32;102730.0;;;11.7;77.0
52343;BME280;38277;51.972;4.624;2023-05-17T02:08:44;102730.0;;;11.7;77.0
52343;BME280;38277;51.972;4.624;2023-05-17T02:13:28;102730.0;;;11.6;77.5
52343;BME280;38277;51.972;4.624;2023-05-17T02:17:39;102740.0;;;11.5;78.0
52343;BME280;38277;51.972;4.624;2023-05-17T02:22:13;102740.0;;;11.5;78.5
52343;BME280;38277;51.972;4.624;2023-05-17T02:26:50;102740.0;;;11.5;78.5
52343;BME280;38277;51.972;4.624;2023-05-17T02:31:35;102730.0;;;11.5;79.0
52343;BME280;38277;51.972;4.624;2023-05-17T02:35:44;102730.0;;;11.5;79.0
52343;BME280;38277;51.972;4.624;2023-05-17T02:44:48;102730.0;;;11.6;79.0
52343;BME280;38277;51.972;4.624;2023-05-17T02:49:37;102730.0;;;11.5;79.0
52343;BME280;38277;51.972;4.624;2023-05-17T02:53:39;102740.0;;;11.6;79.5
52343;BME280;38277;51.972;4.624;2023-05-17T02:58:21;102740.0;;;11.6;79.5
52343;BME280;38277;51.972;4.624;2023-05-17T03:02:58;102740.0;;;11.6;79.5
52343;BME280;38277;51.972;4.624;2023-05-17T03:07:18;102750.0;;;11.6;79.5
52343;BME280;38277;51.972;4.624;2023-05-17T03:11:57;102740.0;;;11.6;79.5
52343;BME280;38277;51.972;4.624;2023-05-17T03:20:51;102750.0;;;11.6;79.5
52343;BME280;38277;51.972;4.624;2023-05-17T03:25:27;102760.0;;;11.6;79.5
52343;BME280;38277;51.972;4.624;2023-05-17T03:29:46;102750.0;;;11.5;79.5
52343;BME280;38277;51.972;4.624;2023-05-17T03:34:15;102770.0;;;11.5;79.5
52343;BME280;38277;51.972;4.624;2023-05-17T03:39:04;102760.0;;;11.5;79.5
52343;BME280;38277;51.972;4.624;2023-05-17T03:43:11;102780.0;;;11.5;79.5
52343;BME280;38277;51.972;4.624;2023-05-17T03:48:00;102770.0;;;11.5;79.5
52343;BME280;38277;51.972;4.624;2023-05-17T03:52:31;102780.0;;;11.6;79.5
52343;BME280;38277;51.972;4.624;2023-05-17T03:56:49;102780.0;;;11.6;79.5
52343;BME280;38277;51.972;4.624;2023-05-17T04:01:31;102790.0;;;11.6;79.5
52343;BME280;38277;51.972;4.624;2023-05-17T04:05:39;102800.0;;;11.7;79.5
52343;BME280;38277;51.972;4.624;2023-05-17T04:10:29;102800.0;;;11.8;79.5
52343;BME280;38277;51.972;4.624;2023-05-17T04:15:02;102800.0;;;11.8;79.0
52343;BME280;38277;51.972;4.624;2023-05-17T04:19:32;102810.0;;;11.9;78.0
52343;BME280;38277;51.972;4.624;2023-05-17T04:24:07;102820.0;;;11.8;77.5
52343;BME280;38277;51.972;4.624;2023-05-17T04:28:12;102820.0;;;11.8;77.0
52343;BME280;38277;51.972;4.624;2023-05-17T04:32:54;102820.0;;;11.8;76.5
52343;BME280;38277;51.972;4.624;2023-05-17T04:37:13;102840.0;;;11.8;76.0
52343;BME280;38277;51.972;4.624;2023-05-17T04:41:41;102840.0;;;11.7;75.5
52343;BME280;38277;51.972;4.624;2023-05-17T04:46:21;102840.0;;;11.6;75.0
52343;BME280;38277;51.972;4.624;2023-05-17T04:50:59;102860.0;;;11.6;74.5
52343;BME280;38277;51.972;4.624;2023-05-17T04:55:09;102860.0;;;11.6;74.0
52343;BME280;38277;51.972;4.624;2023-05-17T04:59:45;102860.0;;;11.5;73.5
52343;BME280;38277;51.972;4.624;2023-05-17T05:04:45;102880.0;;;11.5;73.5
52343;BME280;38277;51.972;4.624;2023-05-17T05:09:03;102880.0;;;11.5;73.5
52343;BME280;38277;51.972;4.624;2023-05-17T05:13:20;102890.0;;;11.6;73.5
52343;BME280;38277;51.972;4.624;2023-05-17T05:18:07;102890.0;;;11.6;73.0
52343;BME280;38277;51.972;4.624;2023-05-17T05:22:20;102890.0;;;11.6;73.0
52343;BME280;38277;51.972;4.624;2023-05-17T05:27:04;102900.0;;;11.6;72.5
52343;BME280;38277;51.972;4.624;2023-05-17T05:31:14;102910.0;;;11.7;72.5
52343;BME280;38277;51.972;4.624;2023-05-17T05:36:05;102910.0;;;11.7;72.0
52343;BME280;38277;51.972;4.624;2023-05-17T05:45:05;102930.0;;;11.8;71.0
52343;BME280;38277;51.972;4.624;2023-05-17T05:49:32;102930.0;;;11.9;70.5
52343;BME280;38277;51.972;4.624;2023-05-17T05:53:51;102940.0;;;12.0;70.0
52343;BME280;38277;51.972;4.624;2023-05-17T05:58:25;102940.0;;;12.0;69.5
52343;BME280;38277;51.972;4.624;2023-05-17T06:02:49;102950.0;;;12.1;69.0
52343;BME280;38277;51.972;4.624;2023-05-17T06:12:06;102950.0;;;12.2;68.0
52343;BME280;38277;51.972;4.624;2023-05-17T06:20:39;102950.0;;;12.3;66.5
52343;BME280;38277;51.972;4.624;2023-05-17T06:25:30;102950.0;;;12.4;66.0
52343;BME280;38277;51.972;4.624;2023-05-17T06:29:44;102970.0;;;12.4;65.5
52343;BME280;38277;51.972;4.624;2023-05-17T06:34:18;102960.0;;;12.5;65.0
52343;BME280;38277;51.972;4.624;2023-05-17T06:39:02;102960.0;;;12.7;65.0
52343;BME280;38277;51.972;4.624;2023-05-17T06:43:33;102950.0;;;13.1;64.5
52343;BME280;38277;51.972;4.624;2023-05-17T06:47:50;102960.0;;;13.4;63.0
52343;BME280;38277;51.972;4.624;2023-05-17T06:52:38;102970.0;;;13.5;61.5
52343;BME280;38277;51.972;4.624;2023-05-17T06:57:18;102980.0;;;13.6;59.5
52343;BME280;38277;51.972;4.624;2023-05-17T07:01:23;102980.0;;;13.6;57.5
52343;BME280;38277;51.972;4.624;2023-05-17T07:05:49;102980.0;;;13.5;56.0
52343;BME280;38277;51.972;4.624;2023-05-17T07:10:36;102990.0;;;13.4;56.0
52343;BME280;38277;51.972;4.624;2023-05-17T07:14:39;102990.0;;;13.4;55.5
52343;BME280;38277;51.972;4.624;2023-05-17T07:19:36;102990.0;;;13.4;56.0
52343;BME280;38277;51.972;4.624;2023-05-17T07:23:41;102990.0;;;13.5;56.5
52343;BME280;38277;51.972;4.624;2023-05-17T07:28:28;102990.0;;;13.7;56.5
52343;BME280;38277;51.972;4.624;2023-05-17T07:32:47;103000.0;;;13.9;55.0
52343;BME280;38277;51.972;4.624;2023-05-17T07:37:13;103010.0;;;14.1;52.5
52343;BME280;38277;51.972;4.624;2023-05-17T07:42:08;103000.0;;;14.1;52.0
52343;BME280;38277;51.972;4.624;2023-05-17T07:50:53;103010.0;;;14.3;53.0
52343;BME280;38277;51.972;4.624;2023-05-17T07:55:25;103010.0;;;14.4;51.0
52343;BME280;38277;51.972;4.624;2023-05-17T07:59:44;103010.0;;;14.4;51.0
52343;BME280;38277;51.972;4.624;2023-05-17T08:04:27;103010.0;;;14.3;51.0
52343;BME280;38277;51.972;4.624;2023-05-17T08:08:44;103010.0;;;14.4;50.5
52343;BME280;38277;51.972;4.624;2023-05-17T08:13:15;103020.0;;;14.5;50.5
52343;BME280;38277;51.972;4.624;2023-05-17T08:17:48;103030.0;;;14.5;49.5
52343;BME280;38277;51.972;4.624;2023-05-17T08:26:48;103040.0;;;14.6;49.5
52343;BME280;38277;51.972;4.624;2023-05-17T08:31:32;103030.0;;;14.6;48.5
52343;BME280;38277;51.972;4.624;2023-05-17T08:36:07;103030.0;;;14.5;49.5
52343;BME280;38277;51.972;4.624;2023-05-17T08:40:36;103020.0;;;14.6;48.5
52343;BME280;38277;51.972;4.624;2023-05-17T08:44:39;103020.0;;;14.8;48.0
52343;BME280;38277;51.972;4.624;2023-05-17T08:49:33;103030.0;;;15.0;48.0
52343;BME280;38277;51.972;4.624;2023-05-17T08:53:59;103020.0;;;15.2;46.5
52343;BME280;38277;51.972;4.624;2023-05-17T08:58:09;103030.0;;;15.2;47.0
52343;BME280;38277;51.972;4.624;2023-05-17T09:02:53;103040.0;;;15.4;47.0
52343;BME280;38277;51.972;4.624;2023-05-17T09:07:33;103030.0;;;15.4;46.5
52343;BME280;38277;51.972;4.624;2023-05-17T09:11:55;103030.0;;;15.6;46.5
52343;BME280;38277;51.972;4.624;2023-05-17T09:16:45;103020.0;;;15.8;45.0
52343;BME280;38277;51.972;4.624;2023-05-17T09:20:49;103030.0;;;15.8;45.0
52343;BME280;38277;51.972;4.624;2023-05-17T09:25:09;103040.0;;;16.0;44.5
52343;BME280;38277;51.972;4.624;2023-05-17T09:30:09;103030.0;;;16.0;45.0
52343;BME280;38277;51.972;4.624;2023-05-17T09:34:17;103030.0;;;16.2;43.5
52343;BME280;38277;51.972;4.624;2023-05-17T09:39:06;103030.0;;;16.3;43.5
52343;BME280;38277;51.972;4.624;2023-05-17T09:43:29;103030.0;;;16.4;43.5
52343;BME280;38277;51.972;4.624;2023-05-17T09:52:23;103020.0;;;16.7;43.5
52343;BME280;38277;51.972;4.624;2023-05-17T09:56:52;103030.0;;;16.8;42.5
52343;BME280;38277;51.972;4.624;2023-05-17T10:10:30;103030.0;;;17.3;43.0
52343;BME280;38277;51.972;4.624;2023-05-17T10:14:46;103030.0;;;17.4;42.5
52343;BME280;38277;51.972;4.624;2023-05-17T10:19:10;103020.0;;;17.5;42.5
52343;BME280;38277;51.972;4.624;2023-05-17T10:28:19;103030.0;;;17.8;42.0
52343;BME280;38277;51.972;4.624;2023-05-17T10:32:53;103020.0;;;18.0;41.5
52343;BME280;38277;51.972;4.624;2023-05-17T10:42:07;103020.0;;;18.5;40.5
52343;BME280;38277;51.972;4.624;2023-05-17T10:46:22;103020.0;;;18.8;39.0
52343;BME280;38277;51.972;4.624;2023-05-17T10:51:22;103020.0;;;19.0;38.5
52343;BME280;38277;51.972;4.624;2023-05-17T10:55:36;103020.0;;;19.3;38.0
52343;BME280;38277;51.972;4.624;2023-05-17T10:59:57;103030.0;;;19.5;37.0
52343;BME280;38277;51.972;4.624;2023-05-17T11:04:32;103020.0;;;19.8;36.5
52343;BME280;38277;51.972;4.624;2023-05-17T11:09:14;103020.0;;;20.2;36.0
52343;BME280;38277;51.972;4.624;2023-05-17T11:13:45;103010.0;;;20.8;34.5
52343;BME280;38277;51.972;4.624;2023-05-17T11:17:59;103020.0;;;21.2;34.0
52343;BME280;38277;51.972;4.624;2023-05-17T11:22:09;103020.0;;;21.7;33.0
52343;BME280;38277;51.972;4.624;2023-05-17T11:27:20;103020.0;;;22.2;32.5
52343;BME280;38277;51.972;4.624;2023-05-17T11:31:28;103020.0;;;22.9;31.5
52343;BME280;38277;51.972;4.624;2023-05-17T11:36:03;103020.0;;;23.6;31.0
52343;BME280;38277;51.972;4.624;2023-05-17T11:40:24;103020.0;;;24.6;29.5
52343;BME280;38277;51.972;4.624;2023-05-17T11:45:00;103010.0;;;25.1;28.5
52343;BME280;38277;51.972;4.624;2023-05-17T11:49:29;103010.0;;;25.0;28.0
52343;BME280;38277;51.972;4.624;2023-05-17T11:58:31;103010.0;;;25.9;27.5
52343;BME280;38277;51.972;4.624;2023-05-17T12:03:25;103000.0;;;26.7;26.5
52343;BME280;38277;51.972;4.624;2023-05-17T12:07:32;103010.0;;;26.9;26.0
52343;BME280;38277;51.972;4.624;2023-05-17T12:11:46;103000.0;;;27.4;25.5
52343;BME280;38277;51.972;4.624;2023-05-17T12:16:30;103000.0;;;27.8;24.5
52343;BME280;38277;51.972;4.624;2023-05-17T12:20:53;103000.0;;;28.3;23.5
52343;BME280;38277;51.972;4.624;2023-05-17T12:25:20;102990.0;;;28.8;23.5
52343;BME280;38277;51.972;4.624;2023-05-17T12:29:53;102990.0;;;29.3;22.0
52343;BME280;38277;51.972;4.624;2023-05-17T12:34:14;102980.0;;;29.6;22.0
52343;BME280;38277;51.972;4.624;2023-05-17T12:38:55;102980.0;;;29.7;22.0
52343;BME280;38277;51.972;4.624;2023-05-17T12:43:39;102960.0;;;30.1;20.5
52343;BME280;38277;51.972;4.624;2023-05-17T12:47:58;102950.0;;;30.3;20.5
52343;BME280;38277;51.972;4.624;2023-05-17T12:52:24;102960.0;;;30.6;19.5
52343;BME280;38277;51.972;4.624;2023-05-17T12:56:56;102970.0;;;30.7;20.0
52343;BME280;38277;51.972;4.624;2023-05-17T13:01:33;102960.0;;;31.1;19.5
52343;BME280;38277;51.972;4.624;2023-05-17T13:10:20;102950.0;;;31.6;18.5
52343;BME280;38277;51.972;4.624;2023-05-17T13:15:08;102940.0;;;31.9;19.0
52343;BME280;38277;51.972;4.624;2023-05-17T13:19:13;102950.0;;;32.3;18.5
52343;BME280;38277;51.972;4.624;2023-05-17T13:24:07;102950.0;;;32.1;18.0
52343;BME280;38277;51.972;4.624;2023-05-17T13:28:09;102950.0;;;32.3;18.0
52343;BME280;38277;51.972;4.624;2023-05-17T13:33:03;102950.0;;;32.6;18.0
52343;BME280;38277;51.972;4.624;2023-05-17T13:37:19;102950.0;;;32.8;18.0
52343;BME280;38277;51.972;4.624;2023-05-17T13:46:09;102950.0;;;32.2;18.5
52343;BME280;38277;51.972;4.624;2023-05-17T13:51:07;102950.0;;;32.5;18.5
52343;BME280;38277;51.972;4.624;2023-05-17T13:55:25;102950.0;;;33.0;17.5
52343;BME280;38277;51.972;4.624;2023-05-17T14:00:07;102940.0;;;33.3;17.0
52343;BME280;38277;51.972;4.624;2023-05-17T14:04:17;102950.0;;;33.3;17.0
52343;BME280;38277;51.972;4.624;2023-05-17T14:08:39;102940.0;;;33.4;17.0
52343;BME280;38277;51.972;4.624;2023-05-17T14:13:10;102950.0;;;33.8;17.0
52343;BME280;38277;51.972;4.624;2023-05-17T14:22:35;102950.0;;;33.3;17.0
52343;BME280;38277;51.972;4.624;2023-05-17T14:27:01;102950.0;;;33.4;17.5
52343;BME280;38277;51.972;4.624;2023-05-17T14:31:19;102940.0;;;33.4;17.0
52343;BME280;38277;51.972;4.624;2023-05-17T14:35:51;102940.0;;;33.5;17.0
52343;BME280;38277;51.972;4.624;2023-05-17T14:40:32;102960.0;;;33.6;17.0
52343;BME280;38277;51.972;4.624;2023-05-17T14:44:58;102950.0;;;34.0;16.5
52343;BME280;38277;51.972;4.624;2023-05-17T14:49:25;102950.0;;;34.1;16.5
52343;BME280;38277;51.972;4.624;2023-05-17T14:54:07;102950.0;;;33.8;16.5
52343;BME280;38277;51.972;4.624;2023-05-17T14:58:24;102950.0;;;33.9;17.0
52343;BME280;38277;51.972;4.624;2023-05-17T15:02:56;102950.0;;;33.6;17.0
52343;BME280;38277;51.972;4.624;2023-05-17T15:07:09;102950.0;;;33.0;17.5
52343;BME280;38277;51.972;4.624;2023-05-17T15:11:41;102950.0;;;32.7;18.0
52343;BME280;38277;51.972;4.624;2023-05-17T15:16:14;102950.0;;;33.0;17.5
52343;BME280;38277;51.972;4.624;2023-05-17T15:21:04;102950.0;;;33.0;17.5
52343;BME280;38277;51.972;4.624;2023-05-17T15:25:12;102950.0;;;32.7;18.0
52343;BME280;38277;51.972;4.624;2023-05-17T15:29:38;102940.0;;;32.3;18.0
52343;BME280;38277;51.972;4.624;2023-05-17T15:34:33;102950.0;;;32.1;18.5
52343;BME280;38277;51.972;4.624;2023-05-17T15:38:39;102940.0;;;32.0;18.5
52343;BME280;38277;51.972;4.624;2023-05-17T15:47:40;102950.0;;;31.6;19.5
52343;BME280;38277;51.972;4.624;2023-05-17T15:52:22;102950.0;;;31.5;19.0
52343;BME280;38277;51.972;4.624;2023-05-17T15:56:58;102960.0;;;31.1;19.0
52343;BME280;38277;51.972;4.624;2023-05-17T16:01:12;102960.0;;;30.3;20.0
52343;BME280;38277;51.972;4.624;2023-05-17T16:10:20;102960.0;;;26.6;24.0
52343;BME280;38277;51.972;4.624;2023-05-17T16:14:45;102970.0;;;25.0;26.0
52343;BME280;38277;51.972;4.624;2023-05-17T16:23:52;102960.0;;;22.4;29.5
52343;BME280;38277;51.972;4.624;2023-05-17T16:28:12;102970.0;;;21.3;31.5
52343;BME280;38277;51.972;4.624;2023-05-17T16:32:42;102970.0;;;20.4;33.0
52343;BME280;38277;51.972;4.624;2023-05-17T16:37:08;102980.0;;;20.1;34.0
52343;BME280;38277;51.972;4.624;2023-05-17T16:41:51;102980.0;;;19.8;34.0
52343;BME280;38277;51.972;4.624;2023-05-17T16:46:35;102990.0;;;19.6;34.5
52343;BME280;38277;51.972;4.624;2023-05-17T16:50:39;102990.0;;;19.2;35.5
52343;BME280;38277;51.972;4.624;2023-05-17T16:55:31;102990.0;;;19.0;36.0
52343;BME280;38277;51.972;4.624;2023-05-17T17:00:06;102990.0;;;18.7;36.0
52343;BME280;38277;51.972;4.624;2023-05-17T17:04:35;102990.0;;;18.4;36.5
52343;BME280;38277;51.972;4.624;2023-05-17T17:08:53;102990.0;;;18.2;37.0
52343;BME280;38277;51.972;4.624;2023-05-17T17:13:32;103000.0;;;17.9;37.5
52343;BME280;38277;51.972;4.624;2023-05-17T17:22:23;103000.0;;;17.5;39.0
52343;BME280;38277;51.972;4.624;2023-05-17T17:31:18;103000.0;;;17.0;40.0
52343;BME280;38277;51.972;4.624;2023-05-17T17:35:44;102990.0;;;16.9;41.0
52343;BME280;38277;51.972;4.624;2023-05-17T17:40:24;102990.0;;;16.9;41.0
52343;BME280;38277;51.972;4.624;2023-05-17T17:44:44;102990.0;;;16.7;41.5
52343;BME280;38277;51.972;4.624;2023-05-17T17:49:26;102990.0;;;16.7;41.5
52343;BME280;38277;51.972;4.624;2023-05-17T17:58:31;103000.0;;;16.2;42.0
52343;BME280;38277;51.972;4.624;2023-05-17T18:03:05;103020.0;;;16.2;42.5
52343;BME280;38277;51.972;4.624;2023-05-17T18:07:19;103010.0;;;16.5;42.0
52343;BME280;38277;51.972;4.624;2023-05-17T18:12:03;103020.0;;;17.1;41.5
52343;BME280;38277;51.972;4.624;2023-05-17T18:16:53;103020.0;;;17.6;40.5
52343;BME280;38277;51.972;4.624;2023-05-17T18:20:45;103020.0;;;17.6;40.0
52343;BME280;38277;51.972;4.624;2023-05-17T18:25:11;103020.0;;;17.4;40.5
52343;BME280;38277;51.972;4.624;2023-05-17T18:29:47;103010.0;;;17.0;41.0
52343;BME280;38277;51.972;4.624;2023-05-17T18:34:55;103010.0;;;16.8;41.5
52343;BME280;38277;51.972;4.624;2023-05-17T18:38:47;103030.0;;;16.6;41.5
52343;BME280;38277;51.972;4.624;2023-05-17T18:43:54;103020.0;;;16.3;42.0
52343;BME280;38277;51.972;4.624;2023-05-17T18:48:05;103020.0;;;16.1;42.5
52343;BME280;38277;51.972;4.624;2023-05-17T18:56:56;103040.0;;;15.4;43.5
52343;BME280;38277;51.972;4.624;2023-05-17T19:01:35;103030.0;;;15.1;44.0
52343;BME280;38277;51.972;4.624;2023-05-17T19:10:17;103040.0;;;14.6;45.0
52343;BME280;38277;51.972;4.624;2023-05-17T19:14:46;103050.0;;;14.4;46.0
52343;BME280;38277;51.972;4.624;2023-05-17T19:19:12;103040.0;;;14.1;46.5
52343;BME280;38277;51.972;4.624;2023-05-17T19:24:01;103050.0;;;14.0;46.5
52343;BME280;38277;51.972;4.624;2023-05-17T19:33:02;103040.0;;;13.6;48.0
52343;BME280;38277;51.972;4.624;2023-05-17T19:37:28;103050.0;;;13.5;48.5
52343;BME280;38277;51.972;4.624;2023-05-17T19:46:16;103060.0;;;13.2;49.5
52343;BME280;38277;51.972;4.624;2023-05-17T19:50:55;103060.0;;;13.1;50.0
52343;BME280;38277;51.972;4.624;2023-05-17T19:55:17;103060.0;;;13.0;50.5
52343;BME280;38277;51.972;4.624;2023-05-17T19:59:56;103060.0;;;12.8;50.5
52343;BME280;38277;51.972;4.624;2023-05-17T20:04:34;103060.0;;;12.7;50.5
52343;BME280;38277;51.972;4.624;2023-05-17T20:08:49;103070.0;;;12.7;51.0
52343;BME280;38277;51.972;4.624;2023-05-17T20:13:09;103060.0;;;12.6;51.0
52343;BME280;38277;51.972;4.624;2023-05-17T20:17:53;103070.0;;;12.5;51.0
52343;BME280;38277;51.972;4.624;2023-05-17T20:22:13;103060.0;;;12.4;51.5
52343;BME280;38277;51.972;4.624;2023-05-17T20:27:04;103070.0;;;12.4;51.5
52343;BME280;38277;51.972;4.624;2023-05-17T20:31:16;103070.0;;;12.3;52.0
52343;BME280;38277;51.972;4.624;2023-05-17T20:35:44;103070.0;;;12.2;52.5
52343;BME280;38277;51.972;4.624;2023-05-17T20:40:52;103070.0;;;12.1;52.5
52343;BME280;38277;51.972;4.624;2023-05-17T20:45:01;103070.0;;;12.0;53.0
52343;BME280;38277;51.972;4.624;2023-05-17T20:49:27;103070.0;;;11.9;53.5
52343;BME280;38277;51.972;4.624;2023-05-17T20:58:34;103070.0;;;11.8;54.0
52343;BME280;38277;51.972;4.624;2023-05-17T21:02:55;103080.0;;;11.8;54.0
52343;BME280;38277;51.972;4.624;2023-05-17T21:07:34;103080.0;;;11.7;54.5
52343;BME280;38277;51.972;4.624;2023-05-17T21:12:06;103070.0;;;11.6;55.0
52343;BME280;38277;51.972;4.624;2023-05-17T21:16:28;103070.0;;;11.6;55.0
52343;BME280;38277;51.972;4.624;2023-05-17T21:20:56;103070.0;;;11.5;55.0
52343;BME280;38277;51.972;4.624;2023-05-17T21:25:13;103080.0;;;11.5;55.0
52343;BME280;38277;51.972;4.624;2023-05-17T21:34:29;103080.0;;;11.3;55.5
52343;BME280;38277;51.972;4.624;2023-05-17T21:39:00;103070.0;;;11.3;55.5
52343;BME280;38277;51.972;4.624;2023-05-17T21:43:28;103080.0;;;11.2;55.5
52343;BME280;38277;51.972;4.624;2023-05-17T21:47:47;103080.0;;;11.1;55.5
52343;BME280;38277;51.972;4.624;2023-05-17T21:52:14;103070.0;;;11.1;55.5
52343;BME280;38277;51.972;4.624;2023-05-17T21:56:46;103070.0;;;11.0;55.5
52343;BME280;38277;51.972;4.624;2023-05-17T22:01:41;103070.0;;;10.9;55.5
52343;BME280;38277;51.972;4.624;2023-05-17T22:05:57;103080.0;;;10.8;55.5
52343;BME280;38277;51.972;4.624;2023-05-17T22:10:25;103080.0;;;10.8;55.5
52343;BME280;38277;51.972;4.624;2023-05-17T22:15:03;103080.0;;;10.7;56.0
52343;BME280;38277;51.972;4.624;2023-05-17T22:19:35;103080.0;;;10.7;56.0
52343;BME280;38277;51.972;4.624;2023-05-17T22:23:43;103070.0;;;10.7;56.5
52343;BME280;38277;51.972;4.624;2023-05-17T22:28:10;103090.0;;;10.6;56.5
52343;BME280;38277;51.972;4.624;2023-05-17T22:37:27;103080.0;;;10.6;57.0
52343;BME280;38277;51.972;4.624;2023-05-17T22:42:06;103080.0;;;10.5;57.5
52343;BME280;38277;51.972;4.624;2023-05-17T22:46:33;103090.0;;;10.4;57.5
52343;BME280;38277;51.972;4.624;2023-05-17T22:51:04;103090.0;;;10.4;58.0
52343;BME280;38277;51.972;4.624;2023-05-17T22:55:30;103090.0;;;10.3;58.0
52343;BME280;38277;51.972;4.624;2023-05-17T22:59:50;103090.0;;;10.2;58.0
52343;BME280;38277;51.972;4.624;2023-05-17T23:04:26;103090.0;;;10.1;58.5
52343;BME280;38277;51.972;4.624;2023-05-17T23:13:21;103090.0;;;10.0;59.0
52343;BME280;38277;51.972;4.624;2023-05-17T23:17:56;103090.0;;;9.9;59.5
52343;BME280;38277;51.972;4.624;2023-05-17T23:22:54;103090.0;;;9.8;60.0
52343;BME280;38277;51.972;4.624;2023-05-17T23:26:50;103090.0;;;9.8;60.0
52343;BME280;38277;51.972;4.624;2023-05-17T23:31:30;103090.0;;;9.8;60.5
52343;BME280;38277;51.972;4.624;2023-05-17T23:40:37;103090.0;;;9.8;60.5
52343;BME280;38277;51.972;4.624;2023-05-17T23:44:56;103090.0;;;9.8;60.5
52343;BME280;38277;51.972;4.624;2023-05-17T23:49:28;103080.0;;;9.7;61.0
52343;BME280;38277;51.972;4.624;2023-05-17T23:53:48;103080.0;;;9.7;61.0
52343;BME280;38277;51.972;4.624;2023-05-17T23:58:11;103070.0;;;9.6;61.0
